NGTA/TRW METAR and TAF weather

Enter ICAO airport designator
Station Type Date Time Source
NGTA METAR 2019/05/19 20:00 UTC NOAA

NGTA 192000Z VRB02KT 9999 FEW020 29/26 Q1009


Station Type Date Time Source
NGTA Decoded METAR 2019/05/19 20:00 UTC NOAA

Tarawa, Kiribati (NGTA) 01-21N 172-55E 4M
May 19, 2019 - 04:00 PM EDT / 2019.05.19 2000 UTC
Wind: Variable at 2 MPH (2 KT):0
Visibility: greater than 7 mile(s):0
Sky conditions: mostly clear
Temperature: 84 F (29 C)
Dew Point: 78 F (26 C)
Relative Humidity: 83%
Pressure (altimeter): 29.80 in. Hg (1009 hPa)
ob: NGTA 192000Z VRB02KT 9999 FEW020 29/26 Q1009
cycle: 20

Station Type Date Time Source
NGTA TAF 2019/05/19 18:12 UTC NOAA

TAF NGTA 191709Z 1918/2018 24006KT 9999 -SHRA SCT018 BKN040 PROB40
TEMPO 1918/2006 5000 TSRA BKN015 FEW018CB

Example: see airport list